createdAt,value
2019-04-28T00:00:15.398Z,0.00
2019-04-28T00:01:14.386Z,0.00
2019-04-28T00:02:14.404Z,0.00
2019-04-28T00:03:14.367Z,0.00
2019-04-28T00:04:14.351Z,0.00
2019-04-28T00:05:14.335Z,0.00
2019-04-28T00:06:14.330Z,0.00
2019-04-28T00:07:14.318Z,0.00
2019-04-28T00:08:14.336Z,0.00
2019-04-28T00:09:14.305Z,0.00
2019-04-28T00:10:14.270Z,0.00
2019-04-28T00:11:14.265Z,0.00
2019-04-28T00:12:14.324Z,0.00
2019-04-28T00:13:14.257Z,0.00
2019-04-28T00:14:14.231Z,0.00
2019-04-28T00:15:14.223Z,0.00
2019-04-28T00:16:14.206Z,0.00
2019-04-28T00:17:14.199Z,0.00
2019-04-28T00:18:14.223Z,0.00
2019-04-28T00:19:14.185Z,0.00
2019-04-28T00:20:14.167Z,0.00
2019-04-28T00:21:14.165Z,0.00
2019-04-28T00:22:14.147Z,0.00
2019-04-28T00:23:14.139Z,0.00
2019-04-28T00:24:14.135Z,0.00
2019-04-28T00:25:14.130Z,0.00
2019-04-28T00:26:14.128Z,0.00
2019-04-28T00:27:14.118Z,0.00
2019-04-28T00:28:14.085Z,0.00
2019-04-28T00:29:14.066Z,0.00
2019-04-28T00:30:14.065Z,0.00
2019-04-28T00:31:14.639Z,0.00
2019-04-28T00:32:14.061Z,0.00
2019-04-28T00:33:14.029Z,0.00
2019-04-28T00:34:14.011Z,0.00
2019-04-28T00:35:14.031Z,0.00
2019-04-28T00:36:14.003Z,0.00
2019-04-28T00:37:13.986Z,0.00
2019-04-28T00:38:13.978Z,0.00
2019-04-28T00:39:13.975Z,0.00
2019-04-28T00:40:13.960Z,0.00
2019-04-28T00:41:13.972Z,0.00
2019-04-28T00:42:13.923Z,0.00
2019-04-28T00:43:13.958Z,0.00
2019-04-28T00:44:13.902Z,0.00
2019-04-28T00:45:13.901Z,0.00
2019-04-28T00:46:13.874Z,0.00
2019-04-28T00:47:13.886Z,0.00
2019-04-28T00:48:13.855Z,0.00
2019-04-28T00:49:13.846Z,0.00
2019-04-28T00:50:13.842Z,0.00
2019-04-28T00:51:13.830Z,0.00
2019-04-28T00:52:13.849Z,0.00
2019-04-28T00:53:13.831Z,0.00
2019-04-28T00:54:13.791Z,0.00
2019-04-28T00:55:13.862Z,0.00
2019-04-28T00:56:13.759Z,0.00
2019-04-28T00:57:13.752Z,0.00
2019-04-28T00:58:13.765Z,0.00
2019-04-28T00:59:13.735Z,0.00
2019-04-28T01:00:13.760Z,0.00
2019-04-28T01:01:13.739Z,0.00
2019-04-28T01:02:13.714Z,0.00
2019-04-28T01:03:13.717Z,0.00
2019-04-28T01:04:13.673Z,0.00
2019-04-28T01:05:13.673Z,0.00
2019-04-28T01:06:14.095Z,0.00
2019-04-28T01:07:13.640Z,0.00
2019-04-28T01:08:13.652Z,0.00
2019-04-28T01:09:13.617Z,0.00
2019-04-28T01:10:13.607Z,0.00
2019-04-28T01:11:13.614Z,0.00
2019-04-28T01:12:13.591Z,0.00
2019-04-28T01:13:13.612Z,0.00
2019-04-28T01:14:13.562Z,0.00
2019-04-28T01:15:13.558Z,0.00
2019-04-28T01:16:13.556Z,0.00
2019-04-28T01:17:13.545Z,0.00
2019-04-28T01:18:13.548Z,0.00
2019-04-28T01:19:13.518Z,0.00
2019-04-28T01:20:13.509Z,0.00
2019-04-28T01:21:13.482Z,0.00
2019-04-28T01:22:13.513Z,0.00
2019-04-28T01:23:13.467Z,0.00
2019-04-28T01:24:13.486Z,0.00
2019-04-28T01:25:13.483Z,0.00
2019-04-28T01:26:13.434Z,0.00
2019-04-28T01:27:13.413Z,0.00
2019-04-28T01:28:13.407Z,0.00
2019-04-28T01:29:13.413Z,0.00
2019-04-28T01:30:13.393Z,0.00
2019-04-28T01:31:13.375Z,0.00
2019-04-28T01:32:13.369Z,0.00
2019-04-28T01:33:13.406Z,0.00
2019-04-28T01:34:13.350Z,0.00
2019-04-28T01:35:13.346Z,0.00
2019-04-28T01:36:13.333Z,0.00
2019-04-28T01:37:13.307Z,0.00
2019-04-28T01:38:13.305Z,0.00
2019-04-28T01:39:13.315Z,0.00
2019-04-28T01:40:13.275Z,0.00
2019-04-28T01:41:13.272Z,0.00
2019-04-28T01:42:13.260Z,0.00
2019-04-28T01:43:13.257Z,0.00
2019-04-28T01:44:13.257Z,0.00
2019-04-28T01:45:13.239Z,0.00
2019-04-28T01:46:13.211Z,0.00
2019-04-28T01:47:13.200Z,0.00
2019-04-28T01:48:13.190Z,0.00
2019-04-28T01:49:13.192Z,0.00
2019-04-28T01:50:13.163Z,0.00
2019-04-28T01:51:13.161Z,0.00
2019-04-28T01:52:13.141Z,0.00
2019-04-28T01:53:13.140Z,0.00
2019-04-28T01:54:13.156Z,0.00
2019-04-28T01:55:13.117Z,0.00
2019-04-28T01:56:13.109Z,0.00
2019-04-28T01:57:13.094Z,0.00
2019-04-28T01:58:13.071Z,0.00
2019-04-28T01:59:13.060Z,0.00
2019-04-28T02:00:22.164Z,0.00
2019-04-28T02:01:14.053Z,0.00
2019-04-28T02:02:13.050Z,0.00
2019-04-28T02:03:13.016Z,0.00
2019-04-28T02:04:13.557Z,0.00
2019-04-28T02:05:13.017Z,0.00
2019-04-28T02:06:13.016Z,0.00
2019-04-28T02:07:12.993Z,0.00
2019-04-28T02:08:12.974Z,0.00
2019-04-28T02:09:12.952Z,0.00
2019-04-28T02:10:12.942Z,0.00
2019-04-28T02:11:12.971Z,0.00
2019-04-28T02:12:12.933Z,0.00
2019-04-28T02:13:12.914Z,0.00
2019-04-28T02:14:12.915Z,0.00
2019-04-28T02:15:12.882Z,0.00
2019-04-28T02:16:12.870Z,0.00
2019-04-28T02:17:12.910Z,0.00
2019-04-28T02:18:12.858Z,0.00
2019-04-28T02:19:12.865Z,0.00
2019-04-28T02:20:12.834Z,0.00
2019-04-28T02:21:12.859Z,0.00
2019-04-28T02:22:12.813Z,0.00
2019-04-28T02:23:12.805Z,0.00
2019-04-28T02:24:12.791Z,0.00
2019-04-28T02:25:12.793Z,0.00
2019-04-28T02:26:12.775Z,0.00
2019-04-28T02:27:12.777Z,0.00
2019-04-28T02:28:12.768Z,0.00
2019-04-28T02:29:12.748Z,0.00
2019-04-28T02:30:12.720Z,0.00
2019-04-28T02:31:12.758Z,0.00
2019-04-28T02:32:12.722Z,0.00
2019-04-28T02:33:12.689Z,0.00
2019-04-28T02:34:12.691Z,0.00
2019-04-28T02:35:12.697Z,0.00
2019-04-28T02:36:12.669Z,0.00
2019-04-28T02:37:12.693Z,0.00
2019-04-28T02:38:12.642Z,0.00
2019-04-28T02:39:12.618Z,0.00
2019-04-28T02:40:12.634Z,0.00
2019-04-28T02:41:12.596Z,0.00
2019-04-28T02:42:12.596Z,0.00
2019-04-28T02:43:12.586Z,0.00
2019-04-28T02:44:12.587Z,0.00
2019-04-28T02:45:12.588Z,0.00
2019-04-28T02:46:12.551Z,0.00
2019-04-28T02:47:12.532Z,0.00
2019-04-28T02:48:12.525Z,0.00
2019-04-28T02:49:12.526Z,0.00
2019-04-28T02:50:12.514Z,0.00
2019-04-28T02:51:12.484Z,0.00
2019-04-28T02:52:12.498Z,0.00
2019-04-28T02:53:12.471Z,0.00
2019-04-28T02:54:12.460Z,0.00
2019-04-28T02:55:12.478Z,0.00
2019-04-28T02:56:12.438Z,0.00
2019-04-28T02:57:12.434Z,0.00
2019-04-28T02:58:13.487Z,0.00
2019-04-28T02:59:12.409Z,0.00
2019-04-28T03:00:12.431Z,0.00
2019-04-28T03:01:21.837Z,0.00
2019-04-28T03:02:13.371Z,0.00
2019-04-28T03:03:12.366Z,0.00
2019-04-28T03:04:12.463Z,0.00
2019-04-28T03:05:12.339Z,0.00
2019-04-28T03:06:12.362Z,0.00
2019-04-28T03:07:14.642Z,0.00
2019-04-28T03:08:12.307Z,0.00
2019-04-28T03:09:12.304Z,0.00
2019-04-28T03:10:12.276Z,0.00
2019-04-28T03:11:12.289Z,0.00
2019-04-28T03:12:12.265Z,0.00
2019-04-28T03:13:13.415Z,0.00
2019-04-28T03:14:12.247Z,0.00
2019-04-28T03:15:12.234Z,0.00
2019-04-28T03:16:12.234Z,0.00
2019-04-28T03:17:12.194Z,0.00
2019-04-28T03:18:12.196Z,0.00
2019-04-28T03:19:12.180Z,0.00
2019-04-28T03:20:12.180Z,0.00
2019-04-28T03:21:12.180Z,0.00
2019-04-28T03:22:12.139Z,0.00
2019-04-28T03:23:12.541Z,0.00
2019-04-28T03:24:13.312Z,0.00
2019-04-28T03:25:12.120Z,0.00
2019-04-28T03:26:12.123Z,0.00
2019-04-28T03:27:12.095Z,0.00
2019-04-28T03:28:12.205Z,0.00
2019-04-28T03:29:12.129Z,0.00
2019-04-28T03:30:13.249Z,0.00
2019-04-28T03:31:36.850Z,0.00
2019-04-28T03:32:31.115Z,0.00
2019-04-28T03:33:18.607Z,0.00
2019-04-28T03:34:13.300Z,0.00
2019-04-28T03:35:13.312Z,0.00
2019-04-28T03:36:15.354Z,0.00
2019-04-28T03:37:11.984Z,0.00
2019-04-28T03:38:11.983Z,0.00
2019-04-28T03:39:11.957Z,0.00
2019-04-28T03:40:11.951Z,0.00
2019-04-28T03:41:11.938Z,0.00
2019-04-28T03:42:11.923Z,0.00
2019-04-28T03:43:14.419Z,0.00
2019-04-28T03:44:11.914Z,0.00
2019-04-28T03:45:11.901Z,0.00
2019-04-28T03:46:11.887Z,0.00
2019-04-28T03:47:11.893Z,0.00
2019-04-28T03:48:11.882Z,0.00
2019-04-28T03:49:11.861Z,0.00
2019-04-28T03:50:11.838Z,0.00
2019-04-28T03:51:13.484Z,0.00
2019-04-28T03:52:11.851Z,0.00
2019-04-28T03:53:11.803Z,0.00
2019-04-28T03:54:11.787Z,0.00
2019-04-28T03:55:11.929Z,0.00
2019-04-28T03:56:11.766Z,0.00
2019-04-28T03:57:11.807Z,0.00
2019-04-28T03:58:11.776Z,0.00
2019-04-28T03:59:11.735Z,0.00
2019-04-28T04:00:11.730Z,0.00
2019-04-28T04:01:11.710Z,0.00
2019-04-28T04:02:11.797Z,0.00
2019-04-28T04:03:11.688Z,0.00
2019-04-28T04:04:11.687Z,0.00
2019-04-28T04:05:11.677Z,0.00
2019-04-28T04:06:11.673Z,0.00
2019-04-28T04:07:11.678Z,0.00
2019-04-28T04:08:11.642Z,0.00
2019-04-28T04:09:11.636Z,0.00
2019-04-28T04:10:11.646Z,0.00
2019-04-28T04:11:11.623Z,0.00
2019-04-28T04:12:11.623Z,0.00
2019-04-28T04:13:11.590Z,0.00
2019-04-28T04:14:11.587Z,0.00
2019-04-28T04:15:11.557Z,0.00
2019-04-28T04:16:11.550Z,0.00
2019-04-28T04:17:11.557Z,0.00
2019-04-28T04:18:11.554Z,0.00
2019-04-28T04:19:11.521Z,0.00
2019-04-28T04:20:11.507Z,0.00
2019-04-28T04:21:11.535Z,0.00
2019-04-28T04:22:11.490Z,0.00
2019-04-28T04:23:11.607Z,5.62
2019-04-28T04:24:11.460Z,5.62
2019-04-28T04:25:12.683Z,0.00
2019-04-28T04:26:11.940Z,5.62
2019-04-28T04:27:11.446Z,5.62
2019-04-28T04:28:11.466Z,5.62
2019-04-28T04:29:11.417Z,5.62
2019-04-28T04:30:11.396Z,5.62
2019-04-28T04:31:11.422Z,5.62
2019-04-28T04:32:20.494Z,5.62
2019-04-28T04:33:12.410Z,5.62
2019-04-28T04:34:11.362Z,11.25
2019-04-28T04:35:11.367Z,11.25
2019-04-28T04:36:11.880Z,11.25
2019-04-28T04:37:12.674Z,11.25
2019-04-28T04:38:11.334Z,16.88
2019-04-28T04:39:11.296Z,11.25
2019-04-28T04:40:13.465Z,16.88
2019-04-28T04:41:11.454Z,16.88
2019-04-28T04:42:11.270Z,11.25
2019-04-28T04:43:11.496Z,16.88
2019-04-28T04:44:11.315Z,16.88
2019-04-28T04:45:11.224Z,16.88
2019-04-28T04:46:14.039Z,16.88
2019-04-28T04:47:11.210Z,16.88
2019-04-28T04:48:11.742Z,16.88
2019-04-28T04:49:11.191Z,16.88
2019-04-28T04:50:13.164Z,16.88
2019-04-28T04:51:11.167Z,16.88
2019-04-28T04:52:11.156Z,16.88
2019-04-28T04:53:11.268Z,22.50
2019-04-28T04:54:11.166Z,22.50
2019-04-28T04:55:11.289Z,22.50
2019-04-28T04:56:11.105Z,28.12
2019-04-28T04:57:11.203Z,39.38
2019-04-28T04:58:11.087Z,50.62
2019-04-28T04:59:11.072Z,61.88
2019-04-28T05:00:11.100Z,78.75
2019-04-28T05:01:11.068Z,90.00
2019-04-28T05:02:25.447Z,95.62
2019-04-28T05:03:12.044Z,106.88
2019-04-28T05:04:11.019Z,106.88
2019-04-28T05:05:11.862Z,129.38
2019-04-28T05:06:10.998Z,135.00
2019-04-28T05:07:10.976Z,112.50
2019-04-28T05:08:15.408Z,106.88
2019-04-28T05:09:10.981Z,106.88
2019-04-28T05:10:10.991Z,106.88
2019-04-28T05:11:11.346Z,95.62
2019-04-28T05:12:10.954Z,84.38
2019-04-28T05:13:10.927Z,73.12
2019-04-28T05:14:12.056Z,101.25
2019-04-28T05:15:10.925Z,106.88
2019-04-28T05:16:10.893Z,106.88
2019-04-28T05:17:10.872Z,106.88
2019-04-28T05:18:10.864Z,95.62
2019-04-28T05:19:10.887Z,101.25
2019-04-28T05:20:10.840Z,95.62
2019-04-28T05:21:10.862Z,90.00
2019-04-28T05:22:10.840Z,84.38
2019-04-28T05:23:10.813Z,73.12
2019-04-28T05:24:15.800Z,78.75
2019-04-28T05:25:11.992Z,61.88
2019-04-28T05:26:11.350Z,56.25
2019-04-28T05:27:10.766Z,56.25
2019-04-28T05:28:10.762Z,56.25
2019-04-28T05:29:10.756Z,56.25
2019-04-28T05:30:12.449Z,56.25
2019-04-28T05:31:13.864Z,50.62
2019-04-28T05:32:11.744Z,45.00
2019-04-28T05:33:10.732Z,45.00
2019-04-28T05:34:11.625Z,50.62
2019-04-28T05:35:10.704Z,39.38
2019-04-28T05:36:11.783Z,39.38
2019-04-28T05:37:10.843Z,39.38
2019-04-28T05:38:11.176Z,50.62
2019-04-28T05:39:10.702Z,56.25
2019-04-28T05:40:10.676Z,73.12
2019-04-28T05:41:11.608Z,73.12
2019-04-28T05:42:11.378Z,67.50
2019-04-28T05:43:10.732Z,61.88
2019-04-28T05:44:10.594Z,50.62
2019-04-28T05:45:10.610Z,45.00
2019-04-28T05:46:10.715Z,56.25
2019-04-28T05:47:10.585Z,73.12
2019-04-28T05:48:11.377Z,67.50
2019-04-28T05:49:10.556Z,50.62
2019-04-28T05:50:10.724Z,56.25
2019-04-28T05:51:10.539Z,84.38
2019-04-28T05:52:11.979Z,106.88
2019-04-28T05:53:10.831Z,101.25
2019-04-28T05:54:10.473Z,112.50
2019-04-28T05:55:10.449Z,140.62
2019-04-28T05:56:10.459Z,146.25
2019-04-28T05:57:10.755Z,112.50
2019-04-28T05:58:10.456Z,95.62
2019-04-28T05:59:10.430Z,95.62
2019-04-28T06:00:10.894Z,106.88
2019-04-28T06:01:10.405Z,106.88
2019-04-28T06:02:12.176Z,95.62
2019-04-28T06:03:10.380Z,84.38
2019-04-28T06:04:11.279Z,73.12
2019-04-28T06:05:10.342Z,78.75
2019-04-28T06:06:10.340Z,90.00
2019-04-28T06:07:10.326Z,140.62
2019-04-28T06:08:10.326Z,180.00
2019-04-28T06:09:10.352Z,208.12
2019-04-28T06:10:12.426Z,219.38
2019-04-28T06:11:12.030Z,208.12
2019-04-28T06:12:10.367Z,163.12
2019-04-28T06:13:10.252Z,202.50
2019-04-28T06:14:10.259Z,208.12
2019-04-28T06:15:12.002Z,225.00
2019-04-28T06:16:10.223Z,258.75
2019-04-28T06:17:10.890Z,236.25
2019-04-28T06:18:10.537Z,230.62
2019-04-28T06:19:10.374Z,191.25
2019-04-28T06:20:11.850Z,168.75
2019-04-28T06:21:10.170Z,208.12
2019-04-28T06:22:10.193Z,202.50
2019-04-28T06:23:10.154Z,180.00
2019-04-28T06:24:10.134Z,191.25
2019-04-28T06:25:10.130Z,157.50
2019-04-28T06:26:10.116Z,146.25
2019-04-28T06:27:10.117Z,140.62
2019-04-28T06:28:10.099Z,135.00
2019-04-28T06:29:10.084Z,146.25
2019-04-28T06:30:10.074Z,140.62
2019-04-28T06:31:10.068Z,140.62
2019-04-28T06:32:10.088Z,202.50
2019-04-28T06:33:10.046Z,163.12
2019-04-28T06:34:10.032Z,129.38
2019-04-28T06:35:10.020Z,123.75
2019-04-28T06:36:10.006Z,135.00
2019-04-28T06:37:09.991Z,129.38
2019-04-28T06:38:09.991Z,146.25
2019-04-28T06:39:09.975Z,185.62
2019-04-28T06:40:09.977Z,191.25
2019-04-28T06:41:09.948Z,185.62
2019-04-28T06:42:09.955Z,168.75
2019-04-28T06:43:09.974Z,185.62
2019-04-28T06:44:09.961Z,208.12
2019-04-28T06:45:09.907Z,196.88
2019-04-28T06:46:09.907Z,157.50
2019-04-28T06:47:09.897Z,191.25
2019-04-28T06:48:09.888Z,230.62
2019-04-28T06:49:09.891Z,191.25
2019-04-28T06:50:09.839Z,196.88
2019-04-28T06:51:09.842Z,180.00
2019-04-28T06:52:09.834Z,174.38
2019-04-28T06:53:09.823Z,168.75
2019-04-28T06:54:09.876Z,157.50
2019-04-28T06:55:09.801Z,140.62
2019-04-28T06:56:09.787Z,129.38
2019-04-28T06:57:09.789Z,202.50
2019-04-28T06:58:09.754Z,180.00
2019-04-28T06:59:09.753Z,157.50
2019-04-28T07:00:09.774Z,225.00
2019-04-28T07:01:09.748Z,331.88
2019-04-28T07:02:09.715Z,343.12
2019-04-28T07:03:22.357Z,275.62
2019-04-28T07:04:10.712Z,208.12
2019-04-28T07:05:09.715Z,180.00
2019-04-28T07:06:09.701Z,230.62
2019-04-28T07:07:09.673Z,264.38
2019-04-28T07:08:09.656Z,286.88
2019-04-28T07:09:09.658Z,247.50
2019-04-28T07:10:09.645Z,225.00
2019-04-28T07:11:09.624Z,225.00
2019-04-28T07:12:09.610Z,270.00
2019-04-28T07:13:09.627Z,213.75
2019-04-28T07:14:09.586Z,163.12
2019-04-28T07:15:09.582Z,151.88
2019-04-28T07:16:09.569Z,219.38
2019-04-28T07:17:09.555Z,213.75
2019-04-28T07:18:09.555Z,168.75
2019-04-28T07:19:09.557Z,180.00
2019-04-28T07:20:09.539Z,202.50
2019-04-28T07:21:09.521Z,213.75
2019-04-28T07:22:09.495Z,180.00
2019-04-28T07:23:09.500Z,174.38
2019-04-28T07:24:09.479Z,202.50
2019-04-28T07:25:09.485Z,191.25
2019-04-28T07:26:09.458Z,219.38
2019-04-28T07:27:09.450Z,213.75
2019-04-28T07:28:09.431Z,258.75
2019-04-28T07:29:09.458Z,247.50
2019-04-28T07:30:09.408Z,241.88
2019-04-28T07:31:09.419Z,253.12
2019-04-28T07:32:09.393Z,286.88
2019-04-28T07:33:09.381Z,270.00
2019-04-28T07:34:09.376Z,247.50
2019-04-28T07:35:09.385Z,247.50
2019-04-28T07:36:09.356Z,241.88
2019-04-28T07:37:09.339Z,230.62
2019-04-28T07:38:09.330Z,230.62
2019-04-28T07:39:09.313Z,208.12
2019-04-28T07:40:09.292Z,174.38
2019-04-28T07:41:09.302Z,185.62
2019-04-28T07:42:09.277Z,309.38
2019-04-28T07:43:09.253Z,230.62
2019-04-28T07:44:09.261Z,185.62
2019-04-28T07:45:09.250Z,236.25
2019-04-28T07:46:09.255Z,225.00
2019-04-28T07:47:09.236Z,202.50
2019-04-28T07:48:09.202Z,129.38
2019-04-28T07:49:09.200Z,129.38
2019-04-28T07:50:09.189Z,202.50
2019-04-28T07:51:09.207Z,225.00
2019-04-28T07:52:09.165Z,185.62
2019-04-28T07:53:09.156Z,180.00
2019-04-28T07:54:09.143Z,202.50
2019-04-28T07:55:09.129Z,230.62
2019-04-28T07:56:09.128Z,281.25
2019-04-28T07:57:09.127Z,292.50
2019-04-28T07:58:09.102Z,320.62
2019-04-28T07:59:09.092Z,348.75
2019-04-28T08:00:09.075Z,365.62
2019-04-28T08:01:09.121Z,371.25
2019-04-28T08:02:09.090Z,410.62
2019-04-28T08:03:09.061Z,388.12
2019-04-28T08:04:09.046Z,371.25
2019-04-28T08:05:09.026Z,309.38
2019-04-28T08:06:09.012Z,371.25
2019-04-28T08:07:08.989Z,427.50
2019-04-28T08:08:09.002Z,438.75
2019-04-28T08:09:08.990Z,399.38
2019-04-28T08:10:08.984Z,433.12
2019-04-28T08:11:08.956Z,421.88
2019-04-28T08:12:08.936Z,388.12
2019-04-28T08:13:08.953Z,360.00
2019-04-28T08:14:08.920Z,393.75
2019-04-28T08:15:08.905Z,354.38
2019-04-28T08:16:08.895Z,416.25
2019-04-28T08:17:08.890Z,528.75
2019-04-28T08:18:08.916Z,523.12
2019-04-28T08:19:08.884Z,523.12
2019-04-28T08:20:08.850Z,551.25
2019-04-28T08:21:08.834Z,517.50
2019-04-28T08:22:08.837Z,399.38
2019-04-28T08:23:08.821Z,382.50
2019-04-28T08:24:08.836Z,393.75
2019-04-28T08:25:08.785Z,433.12
2019-04-28T08:26:08.785Z,450.00
2019-04-28T08:27:08.764Z,427.50
2019-04-28T08:28:08.767Z,416.25
2019-04-28T08:29:08.758Z,343.12
2019-04-28T08:30:08.761Z,371.25
2019-04-28T08:31:08.737Z,371.25
2019-04-28T08:32:08.715Z,343.12
2019-04-28T08:33:08.703Z,337.50
2019-04-28T08:34:08.700Z,343.12
2019-04-28T08:35:08.688Z,337.50
2019-04-28T08:36:08.709Z,326.25
2019-04-28T08:37:08.667Z,320.62
2019-04-28T08:38:08.651Z,309.38
2019-04-28T08:39:08.638Z,360.00
2019-04-28T08:40:08.642Z,388.12
2019-04-28T08:41:08.650Z,405.00
2019-04-28T08:42:08.622Z,421.88
2019-04-28T08:43:08.615Z,444.38
2019-04-28T08:44:08.585Z,466.88
2019-04-28T08:45:08.573Z,478.12
2019-04-28T08:46:08.595Z,478.12
2019-04-28T08:47:08.548Z,489.38
2019-04-28T08:48:08.553Z,523.12
2019-04-28T08:49:08.536Z,517.50
2019-04-28T08:50:08.532Z,545.62
2019-04-28T08:51:08.515Z,511.88
2019-04-28T08:52:08.527Z,506.25
2019-04-28T08:53:08.483Z,506.25
2019-04-28T08:54:08.492Z,416.25
2019-04-28T08:55:08.471Z,444.38
2019-04-28T08:56:08.446Z,466.88
2019-04-28T08:57:08.442Z,500.62
2019-04-28T08:58:08.445Z,585.00
2019-04-28T08:59:08.422Z,663.75
2019-04-28T09:00:08.423Z,495.00
2019-04-28T09:01:08.405Z,416.25
2019-04-28T09:02:08.402Z,376.88
2019-04-28T09:03:08.428Z,354.38
2019-04-28T09:04:15.080Z,365.62
2019-04-28T09:05:09.362Z,326.25
2019-04-28T09:06:08.336Z,303.75
2019-04-28T09:07:08.322Z,275.62
2019-04-28T09:08:08.354Z,264.38
2019-04-28T09:09:08.321Z,241.88
2019-04-28T09:10:08.296Z,230.62
2019-04-28T09:11:08.303Z,219.38
2019-04-28T09:12:08.283Z,230.62
2019-04-28T09:13:08.291Z,236.25
2019-04-28T09:14:08.256Z,236.25
2019-04-28T09:15:08.260Z,241.88
2019-04-28T09:16:08.233Z,219.38
2019-04-28T09:17:08.216Z,236.25
2019-04-28T09:18:08.237Z,270.00
2019-04-28T09:19:08.199Z,286.88
2019-04-28T09:20:08.187Z,281.25
2019-04-28T09:21:08.186Z,281.25
2019-04-28T09:22:08.180Z,303.75
2019-04-28T09:23:08.161Z,298.12
2019-04-28T09:24:08.163Z,365.62
2019-04-28T09:25:08.134Z,517.50
2019-04-28T09:26:08.127Z,646.88
2019-04-28T09:27:08.114Z,810.00
2019-04-28T09:28:08.113Z,933.75
2019-04-28T09:29:08.118Z,1074.38
2019-04-28T09:30:08.076Z,1209.38
2019-04-28T09:31:08.062Z,1333.12
2019-04-28T09:32:08.067Z,1327.50
2019-04-28T09:33:08.057Z,1265.62
2019-04-28T09:34:08.045Z,1417.50
2019-04-28T09:35:08.067Z,1158.75
2019-04-28T09:36:08.013Z,950.62
2019-04-28T09:37:08.014Z,866.25
2019-04-28T09:38:07.980Z,821.25
2019-04-28T09:39:07.981Z,871.88
2019-04-28T09:40:08.016Z,973.12
2019-04-28T09:41:07.960Z,1096.88
2019-04-28T09:42:07.935Z,1395.00
2019-04-28T09:43:07.936Z,1057.50
2019-04-28T09:44:07.927Z,703.12
2019-04-28T09:45:07.915Z,641.25
2019-04-28T09:46:07.925Z,697.50
2019-04-28T09:47:07.897Z,781.88
2019-04-28T09:48:07.876Z,877.50
2019-04-28T09:49:07.862Z,961.88
2019-04-28T09:50:07.855Z,815.62
2019-04-28T09:51:07.862Z,635.62
2019-04-28T09:52:07.833Z,669.38
2019-04-28T09:53:07.835Z,686.25
2019-04-28T09:54:07.820Z,601.88
2019-04-28T09:55:07.815Z,495.00
2019-04-28T09:56:07.819Z,461.25
2019-04-28T09:57:07.774Z,455.62
2019-04-28T09:58:07.770Z,399.38
2019-04-28T09:59:07.762Z,303.75
2019-04-28T10:00:07.739Z,236.25
2019-04-28T10:01:07.732Z,202.50
2019-04-28T10:02:07.738Z,196.88
2019-04-28T10:03:07.701Z,208.12
2019-04-28T10:04:07.703Z,236.25
2019-04-28T10:05:07.703Z,320.62
2019-04-28T10:06:07.700Z,438.75
2019-04-28T10:07:07.720Z,511.88
2019-04-28T10:08:07.671Z,528.75
2019-04-28T10:09:07.635Z,573.75
2019-04-28T10:10:07.637Z,556.88
2019-04-28T10:11:07.624Z,545.62
2019-04-28T10:12:07.622Z,551.25
2019-04-28T10:13:07.613Z,613.12
2019-04-28T10:14:07.587Z,607.50
2019-04-28T10:15:07.582Z,495.00
2019-04-28T10:16:07.568Z,495.00
2019-04-28T10:17:07.590Z,540.00
2019-04-28T10:18:07.662Z,511.88
2019-04-28T10:19:07.544Z,433.12
2019-04-28T10:20:07.523Z,376.88
2019-04-28T10:21:07.505Z,371.25
2019-04-28T10:22:07.519Z,405.00
2019-04-28T10:23:07.511Z,523.12
2019-04-28T10:24:07.488Z,703.12
2019-04-28T10:25:07.539Z,832.50
2019-04-28T10:26:07.469Z,928.12
2019-04-28T10:27:07.452Z,945.00
2019-04-28T10:28:07.458Z,967.50
2019-04-28T10:29:07.428Z,1023.75
2019-04-28T10:30:07.417Z,1023.75
2019-04-28T10:31:07.422Z,950.62
2019-04-28T10:32:07.417Z,894.38
2019-04-28T10:33:07.409Z,855.00
2019-04-28T10:34:07.364Z,866.25
2019-04-28T10:35:07.358Z,916.88
2019-04-28T10:36:07.355Z,945.00
2019-04-28T10:37:07.343Z,956.25
2019-04-28T10:38:07.350Z,961.88
2019-04-28T10:39:07.352Z,961.88
2019-04-28T10:40:07.303Z,990.00
2019-04-28T10:41:07.290Z,984.38
2019-04-28T10:42:07.276Z,990.00
2019-04-28T10:43:07.273Z,922.50
2019-04-28T10:44:08.677Z,720.00
2019-04-28T10:45:07.291Z,675.00
2019-04-28T10:46:07.235Z,635.62
2019-04-28T10:47:07.224Z,663.75
2019-04-28T10:48:07.244Z,787.50
2019-04-28T10:49:07.212Z,933.75
2019-04-28T10:50:07.199Z,956.25
2019-04-28T10:51:07.193Z,1102.50
2019-04-28T10:52:07.168Z,1181.25
2019-04-28T10:53:07.186Z,1293.75
2019-04-28T10:54:07.167Z,1231.88
2019-04-28T10:55:07.135Z,1080.00
2019-04-28T10:56:07.137Z,1051.88
2019-04-28T10:57:07.121Z,1068.75
2019-04-28T10:58:07.144Z,1096.88
2019-04-28T10:59:07.105Z,1310.62
2019-04-28T11:00:07.108Z,1912.50
2019-04-28T11:01:07.070Z,1884.38
2019-04-28T11:02:07.070Z,1665.00
2019-04-28T11:03:07.065Z,1333.12
2019-04-28T11:04:07.066Z,1591.88
2019-04-28T11:05:08.623Z,2182.50
2019-04-28T11:06:07.023Z,1366.88
2019-04-28T11:07:07.019Z,1653.75
2019-04-28T11:08:07.008Z,2548.12
2019-04-28T11:09:06.985Z,2396.25
2019-04-28T11:10:06.999Z,1366.88
2019-04-28T11:11:06.970Z,1440.00
2019-04-28T11:12:06.962Z,1119.38
2019-04-28T11:13:06.963Z,1237.50
2019-04-28T11:14:06.954Z,967.50
2019-04-28T11:15:06.915Z,1046.25
2019-04-28T11:16:06.940Z,1063.12
2019-04-28T11:17:06.904Z,1018.12
2019-04-28T11:18:06.907Z,888.75
2019-04-28T11:19:06.871Z,939.38
2019-04-28T11:20:06.887Z,1023.75
2019-04-28T11:21:06.862Z,2283.75
2019-04-28T11:22:06.852Z,1130.62
2019-04-28T11:23:06.861Z,1029.38
2019-04-28T11:24:06.817Z,1057.50
2019-04-28T11:25:06.807Z,866.25
2019-04-28T11:26:06.800Z,883.12
2019-04-28T11:27:06.784Z,1001.25
2019-04-28T11:28:06.784Z,1018.12
2019-04-28T11:29:06.808Z,1051.88
2019-04-28T11:30:06.767Z,1760.62
2019-04-28T11:31:06.747Z,1445.62
2019-04-28T11:32:06.727Z,1378.12
2019-04-28T11:33:06.715Z,1648.12
2019-04-28T11:34:06.731Z,1963.12
2019-04-28T11:35:06.739Z,1237.50
2019-04-28T11:36:06.702Z,1141.88
2019-04-28T11:37:06.670Z,1175.62
2019-04-28T11:38:06.666Z,1012.50
2019-04-28T11:39:06.658Z,888.75
2019-04-28T11:40:06.659Z,883.12
2019-04-28T11:41:06.674Z,883.12
2019-04-28T11:42:06.632Z,855.00
2019-04-28T11:43:06.613Z,826.88
2019-04-28T11:44:06.614Z,781.88
2019-04-28T11:45:06.583Z,663.75
2019-04-28T11:46:06.577Z,573.75
2019-04-28T11:47:06.574Z,489.38
2019-04-28T11:48:06.586Z,433.12
2019-04-28T11:49:06.552Z,410.62
2019-04-28T11:50:06.535Z,416.25
2019-04-28T11:51:06.513Z,444.38
2019-04-28T11:52:06.523Z,450.00
2019-04-28T11:53:06.533Z,478.12
2019-04-28T11:54:06.507Z,489.38
2019-04-28T11:55:06.485Z,523.12
2019-04-28T11:56:06.464Z,528.75
2019-04-28T11:57:06.447Z,523.12
2019-04-28T11:58:06.438Z,433.12
2019-04-28T11:59:06.453Z,360.00
2019-04-28T12:00:06.428Z,337.50
2019-04-28T12:01:06.410Z,298.12
2019-04-28T12:02:06.409Z,264.38
2019-04-28T12:03:06.398Z,241.88
2019-04-28T12:04:06.371Z,258.75
2019-04-28T12:05:06.394Z,275.62
2019-04-28T12:06:06.363Z,270.00
2019-04-28T12:07:06.351Z,247.50
2019-04-28T12:08:06.336Z,230.62
2019-04-28T12:09:06.323Z,219.38
2019-04-28T12:10:06.681Z,236.25
2019-04-28T12:11:06.297Z,253.12
2019-04-28T12:12:08.583Z,292.50
2019-04-28T12:13:06.290Z,320.62
2019-04-28T12:14:06.281Z,326.25
2019-04-28T12:15:06.299Z,354.38
2019-04-28T12:16:06.237Z,371.25
2019-04-28T12:17:06.271Z,393.75
2019-04-28T12:18:06.222Z,410.62
2019-04-28T12:19:06.210Z,427.50
2019-04-28T12:20:06.203Z,450.00
2019-04-28T12:21:06.209Z,500.62
2019-04-28T12:22:06.172Z,556.88
2019-04-28T12:23:06.181Z,624.38
2019-04-28T12:24:06.161Z,658.12
2019-04-28T12:25:06.151Z,663.75
2019-04-28T12:26:06.161Z,731.25
2019-04-28T12:27:06.142Z,776.25
2019-04-28T12:28:06.111Z,838.12
2019-04-28T12:29:06.104Z,933.75
2019-04-28T12:30:06.093Z,950.62
2019-04-28T12:31:06.110Z,945.00
2019-04-28T12:32:06.079Z,877.50
2019-04-28T12:33:06.060Z,781.88
2019-04-28T12:34:06.054Z,703.12
2019-04-28T12:35:06.038Z,618.75
2019-04-28T12:36:06.022Z,528.75
2019-04-28T12:37:06.028Z,461.25
2019-04-28T12:38:06.018Z,416.25
2019-04-28T12:39:05.989Z,405.00
2019-04-28T12:40:05.995Z,416.25
2019-04-28T12:41:05.964Z,410.62
2019-04-28T12:42:05.975Z,416.25
2019-04-28T12:43:05.945Z,427.50
2019-04-28T12:44:05.948Z,450.00
2019-04-28T12:45:05.929Z,483.75
2019-04-28T12:46:05.929Z,511.88